Time;durP1;ratioP1;P1;durP2;ratioP2;P2;SDS_P1;SDS_P2;PMS_P1;PMS_P2;Temp;Humidity;BMP_temperature;BMP_pressure;BME280_temperature;BME280_humidity;BME280_pressure;Samples;Min_cycle;Max_cycle;Signal;HPM_P1;HPM_P2
2022/10/11 00:00:35;;;;;;;14.05;8.43;;;;;;;15.46;62.51;100461.09;4524136;31;79763;-92
2022/10/11 00:03:15;;;;;;;13.32;7.53;;;;;;;18.72;53.18;100439.09;4527669;31;29732;-92
2022/10/11 00:05:56;;;;;;;12.88;7.80;;;;;;;17.39;56.47;100426.22;4507386;31;82146;-92
2022/10/11 00:08:35;;;;;;;13.65;8.15;;;;;;;17.08;57.01;100436.69;4511712;31;30210;-92
2022/10/11 00:11:17;;;;;;;14.02;8.75;;;;;;;17.45;56.97;100440.34;4518927;31;78286;-91
2022/10/11 00:14:05;;;;;;;16.70;8.93;;;;;;;16.30;60.63;100448.28;4522873;31;78173;-89
2022/10/11 00:16:47;;;;;;;16.15;9.02;;;;;;;16.77;59.76;100439.25;4518224;31;145632;-91
2022/10/11 00:19:27;;;;;;;16.40;8.90;;;;;;;16.38;60.08;100439.78;4520976;31;81985;-91
2022/10/11 00:22:11;;;;;;;12.35;7.12;;;;;;;17.57;56.62;100436.28;4516912;31;28828;-91
2022/10/11 00:24:54;;;;;;;18.02;9.68;;;;;;;17.75;55.14;100447.25;4520406;31;78444;-89
2022/10/11 00:27:37;;;;;;;18.67;10.15;;;;;;;16.69;58.48;100442.53;4518474;31;82761;-88
2022/10/11 00:30:20;;;;;;;17.00;9.25;;;;;;;15.72;62.11;100441.09;4520632;31;26790;-89
2022/10/11 00:33:05;;;;;;;16.12;9.18;;;;;;;16.08;62.11;100425.78;4520032;31;81042;-90
2022/10/11 00:35:48;;;;;;;13.10;8.45;;;;;;;15.28;64.36;100445.66;4503325;31;160977;-90
2022/10/11 00:38:31;;;;;;;18.08;10.25;;;;;;;14.77;66.49;100440.28;4516498;31;74987;-90
2022/10/11 00:41:15;;;;;;;16.98;10.25;;;;;;;15.10;66.57;100435.41;4507422;31;81271;-92
2022/10/11 00:44:08;;;;;;;16.25;9.77;;;;;;;16.17;62.62;100427.81;4522534;31;78744;-93
2022/10/11 00:47:00;;;;;;;18.27;9.80;;;;;;;16.19;61.70;100425.25;4520409;31;79622;-89
2022/10/11 00:49:57;;;;;;;18.12;9.90;;;;;;;15.56;63.33;100428.34;4512078;31;77008;-92
2022/10/11 00:52:39;;;;;;;16.23;9.13;;;;;;;14.72;66.76;100433.16;4521430;31;86718;-92
2022/10/11 00:55:30;;;;;;;18.08;9.30;;;;;;;15.78;62.84;100428.28;4510599;31;101089;-91
2022/10/11 00:58:13;;;;;;;14.73;8.52;;;;;;;16.23;60.82;100428.00;4518195;31;79799;-89
2022/10/11 01:00:57;;;;;;;13.00;7.35;;;;;;;16.29;60.45;100425.59;4503800;31;80618;-92
2022/10/11 01:03:45;;;;;;;11.48;6.57;;;;;;;16.81;58.71;100420.19;4509166;31;197261;-89
2022/10/11 01:06:29;;;;;;;10.75;5.85;;;;;;;19.42;50.04;100426.53;4519845;31;78065;-90
2022/10/11 01:09:13;;;;;;;12.18;6.87;;;;;;;19.44;50.34;100423.94;4514283;31;80359;-89
2022/10/11 01:12:00;;;;;;;8.95;5.53;;;;;;;19.73;49.11;100419.25;4497186;31;82165;-89
2022/10/11 01:15:04;;;;;;;9.75;5.18;;;;;;;19.22;49.61;100423.56;4525834;31;29936;-92
2022/10/11 01:18:15;;;;;;;27.02;5.78;;;;;;;17.38;54.98;100421.81;4510798;31;84949;-92
2022/10/11 01:21:24;;;;;;;10.43;5.80;;;;;;;15.52;61.96;100423.00;4517939;31;78543;-91
2022/10/11 01:24:22;;;;;;;9.73;5.28;;;;;;;15.56;62.72;100418.78;4522153;31;81333;-90
2022/10/11 01:27:25;;;;;;;8.85;5.68;;;;;;;15.32;62.83;100418.84;4520564;31;77120;-92
2022/10/11 01:30:24;;;;;;;14.10;6.60;;;;;;;15.96;60.79;100414.06;4514413;31;81255;-92
2022/10/11 01:33:13;;;;;;;12.80;6.37;;;;;;;15.27;62.60;100420.37;4509293;31;73699;-92
2022/10/11 01:36:04;;;;;;;11.90;7.03;;;;;;;13.43;69.95;100420.09;4522822;31;77808;-92
2022/10/11 01:38:54;;;;;;;12.43;7.53;;;;;;;13.67;69.95;100417.63;4516707;31;199469;-92
2022/10/11 01:41:40;;;;;;;11.43;7.47;;;;;;;13.70;69.86;100414.28;4512450;31;79441;-89
2022/10/11 01:44:24;;;;;;;13.52;7.95;;;;;;;13.54;70.07;100405.84;4519166;31;97044;-88
2022/10/11 01:47:07;;;;;;;15.25;8.07;;;;;;;13.11;71.07;100413.44;4520875;31;78664;-89
2022/10/11 01:49:58;;;;;;;17.87;8.07;;;;;;;13.02;72.40;100415.63;4505734;31;80494;-89
2022/10/11 01:52:46;;;;;;;16.60;7.57;;;;;;;12.72;73.65;100411.72;4519752;31;84386;-89
2022/10/11 01:55:50;;;;;;;13.30;7.93;;;;;;;14.33;67.55;100412.53;4493555;31;74445;-89
2022/10/11 01:59:08;;;;;;;15.65;8.40;;;;;;;13.88;69.09;100414.16;4509286;31;165738;-93
2022/10/11 02:02:08;;;;;;;13.73;8.13;;;;;;;13.48;69.87;100405.59;4509291;31;73503;-89
2022/10/11 02:04:54;;;;;;;13.35;7.40;;;;;;;13.14;71.21;100416.19;4513034;31;78103;-92
2022/10/11 02:07:50;;;;;;;13.40;7.18;;;;;;;13.71;68.90;100403.94;4508649;31;80852;-89
2022/10/11 02:10:50;;;;;;;13.70;7.40;;;;;;;16.56;60.01;100403.75;4517365;31;98898;-91
2022/10/11 02:13:58;;;;;;;11.85;6.68;;;;;;;17.47;56.48;100394.13;4513759;31;82575;-90
2022/10/11 02:17:06;;;;;;;14.68;7.20;;;;;;;17.02;57.01;100394.66;4522188;31;78814;-89
2022/10/11 02:19:52;;;;;;;9.48;6.32;;;;;;;16.91;57.09;100393.47;4507493;31;80937;-91
2022/10/11 02:22:38;;;;;;;12.15;6.55;;;;;;;17.42;55.44;100397.47;4518214;31;84845;-91
2022/10/11 02:25:25;;;;;;;11.20;6.07;;;;;;;16.86;55.43;100408.12;4520269;31;80640;-89
2022/10/11 02:28:15;;;;;;;10.60;6.22;;;;;;;16.80;55.80;100403.56;4521134;31;77498;-90
2022/10/11 02:31:01;;;;;;;11.75;6.20;;;;;;;16.07;57.51;100407.44;4514103;31;126487;-91
2022/10/11 02:33:49;;;;;;;11.27;6.43;;;;;;;18.22;52.12;100400.38;4439974;32;83154;-92
2022/10/11 02:37:04;;;;;;;9.93;5.32;;;;;;;17.93;52.46;100393.56;4517981;31;113992;-92
2022/10/11 02:39:54;;;;;;;9.38;4.90;;;;;;;18.21;51.64;100403.84;4500420;31;203118;-90
2022/10/11 02:42:44;;;;;;;10.20;5.62;;;;;;;16.25;57.31;100401.94;4519439;31;79979;-90
2022/10/11 02:45:35;;;;;;;11.90;6.47;;;;;;;15.41;60.42;100413.91;4516601;31;80301;-89
2022/10/11 02:48:22;;;;;;;10.68;5.70;;;;;;;15.34;60.25;100409.34;4489872;31;162812;-91
2022/10/11 02:51:13;;;;;;;11.27;6.03;;;;;;;15.14;61.12;100419.94;4515792;31;76216;-91
2022/10/11 02:53:52;;;;;;;13.38;5.85;;;;;;;15.07;61.25;100417.06;4504460;31;120330;-92
2022/10/11 02:56:33;;;;;;;12.35;6.20;;;;;;;14.53;62.94;100420.22;4519789;31;34863;-92
2022/10/11 02:59:17;;;;;;;12.07;6.20;;;;;;;14.27;65.03;100425.28;4513451;31;76392;-90
2022/10/11 03:02:00;;;;;;;10.30;6.22;;;;;;;14.56;64.54;100417.72;4511624;31;79958;-88
2022/10/11 03:04:45;;;;;;;11.48;6.40;;;;;;;14.07;65.21;100415.81;4515019;31;84283;-87
2022/10/11 03:07:27;;;;;;;12.10;7.05;;;;;;;14.32;64.55;100413.34;4506967;31;90447;-90
2022/10/11 03:10:14;;;;;;;12.95;6.55;;;;;;;13.26;68.74;100419.31;4510416;31;29473;-89
2022/10/11 03:12:54;;;;;;;12.85;6.62;;;;;;;13.33;68.37;100412.72;4515404;31;78494;-92
2022/10/11 03:15:41;;;;;;;13.10;7.18;;;;;;;12.57;71.46;100417.13;4521078;31;78869;-90
2022/10/11 03:18:24;;;;;;;12.65;7.10;;;;;;;12.29;72.83;100414.91;4513431;31;32919;-87
2022/10/11 03:21:08;;;;;;;13.32;7.03;;;;;;;11.88;73.56;100421.56;4523193;31;70699;-92
2022/10/11 03:23:50;;;;;;;12.02;7.45;;;;;;;12.76;71.75;100420.56;4494091;31;81239;-88
2022/10/11 03:26:33;;;;;;;12.75;6.78;;;;;;;12.75;72.06;100427.47;4521778;31;81148;-89
2022/10/11 03:29:16;;;;;;;13.25;6.55;;;;;;;12.92;71.53;100427.31;4514929;31;95941;-90
2022/10/11 03:31:59;;;;;;;10.75;6.20;;;;;;;14.60;65.32;100430.06;4520397;31;113165;-90
2022/10/11 03:34:42;;;;;;;12.98;6.72;;;;;;;15.33;62.42;100436.25;4504549;31;86155;-91
2022/10/11 03:37:21;;;;;;;11.55;6.85;;;;;;;14.87;62.86;100434.56;4510174;31;78145;-92
2022/10/11 03:40:07;;;;;;;11.40;6.43;;;;;;;15.28;61.87;100436.09;4518006;31;122370;-90
2022/10/11 03:42:46;;;;;;;11.12;6.65;;;;;;;15.49;61.11;100435.97;4499823;31;80155;-92
2022/10/11 03:45:25;;;;;;;9.25;6.55;;;;;;;15.03;61.66;100447.37;4517950;31;80748;-91
2022/10/11 03:48:05;;;;;;;13.62;6.20;;;;;;;14.75;63.52;100440.22;4513932;31;92132;-91
2022/10/11 03:50:48;;;;;;;11.27;6.15;;;;;;;15.46;61.18;100446.31;4521092;31;95377;-91
2022/10/11 03:53:32;;;;;;;11.60;6.00;;;;;;;14.39;64.86;100445.75;4508146;31;208862;-91
2022/10/11 03:56:16;;;;;;;12.77;7.22;;;;;;;15.04;62.94;100440.41;4516322;31;76180;-91
2022/10/11 03:59:00;;;;;;;15.63;7.25;;;;;;;15.48;61.42;100446.34;4524586;31;77090;-91
2022/10/11 04:01:43;;;;;;;11.65;6.53;;;;;;;15.83;60.20;100438.88;4507697;31;74008;-91
2022/10/11 04:04:38;;;;;;;13.57;6.62;;;;;;;15.89;59.74;100447.81;4494092;31;176366;-89
2022/10/11 04:07:21;;;;;;;15.15;6.12;;;;;;;16.99;56.70;100435.56;4517978;31;80075;-89
2022/10/11 04:10:05;;;;;;;11.27;6.45;;;;;;;18.07;52.76;100423.63;4509459;31;75073;-89
2022/10/11 04:12:48;;;;;;;11.85;6.10;;;;;;;16.26;58.04;100440.28;4523290;31;83453;-88
2022/10/11 04:15:40;;;;;;;11.40;6.05;;;;;;;15.58;60.66;100439.72;4523526;31;81552;-90
2022/10/11 04:18:23;;;;;;;13.90;6.45;;;;;;;15.34;61.83;100451.09;4517847;31;91714;-89
2022/10/11 04:21:06;;;;;;;12.15;6.60;;;;;;;15.33;62.14;100446.69;4522449;31;81064;-88
2022/10/11 04:23:50;;;;;;;16.77;7.15;;;;;;;14.95;62.69;100448.81;4491258;31;77509;-90
2022/10/11 04:26:37;;;;;;;12.95;7.32;;;;;;;15.01;63.53;100454.25;4508316;31;182352;-92
2022/10/11 04:29:17;;;;;;;12.15;7.15;;;;;;;14.92;63.63;100443.47;4516912;31;83043;-91
2022/10/11 04:32:08;;;;;;;14.27;6.57;;;;;;;14.27;65.31;100446.13;4501754;31;146590;-90
2022/10/11 04:34:55;;;;;;;13.15;6.62;;;;;;;14.40;65.64;100437.09;4465227;31;767199;-90
2022/10/11 04:37:38;;;;;;;11.63;6.40;;;;;;;14.69;64.87;100440.87;4514897;31;80526;-88
2022/10/11 04:40:21;;;;;;;17.00;7.43;;;;;;;13.44;68.92;100445.28;4506687;31;198572;-90
2022/10/11 04:43:08;;;;;;;14.93;8.60;;;;;;;13.69;68.69;100443.75;4495034;31;106431;-87
2022/10/11 04:45:51;;;;;;;18.80;8.63;;;;;;;14.25;66.76;100447.78;4512936;31;76423;-89
2022/10/11 04:48:36;;;;;;;15.32;8.18;;;;;;;14.82;64.47;100441.34;4524986;31;83011;-91
2022/10/11 04:51:24;;;;;;;16.08;9.25;;;;;;;14.43;65.03;100444.13;4501958;31;79965;-88
2022/10/11 04:54:06;;;;;;;13.32;8.18;;;;;;;17.29;56.35;100440.78;4516551;31;32586;-89
2022/10/11 04:56:49;;;;;;;12.68;7.00;;;;;;;17.96;53.70;100436.44;4517872;31;79956;-88
2022/10/11 04:59:28;;;;;;;11.30;6.72;;;;;;;18.18;53.15;100443.13;4523110;31;81121;-92
2022/10/11 05:02:12;;;;;;;19.83;8.77;;;;;;;17.77;53.64;100439.41;4504076;31;79405;-87
2022/10/11 05:05:00;;;;;;;24.65;10.95;;;;;;;17.36;55.01;100447.94;4500452;31;133371;-89
2022/10/11 05:07:47;;;;;;;18.23;9.95;;;;;;;18.36;52.40;100441.78;4500821;31;78281;-91
2022/10/11 05:10:26;;;;;;;20.77;9.35;;;;;;;18.23;52.29;100444.13;4504616;31;92281;-92
2022/10/11 05:13:14;;;;;;;15.65;9.18;;;;;;;17.47;53.71;100441.28;4496691;31;165929;-90
2022/10/11 05:16:02;;;;;;;14.07;7.97;;;;;;;16.17;57.88;100447.81;4524090;31;30815;-89
2022/10/11 05:18:52;;;;;;;17.50;8.65;;;;;;;17.96;53.49;100441.69;4517638;31;83781;-89
2022/10/11 05:21:35;;;;;;;13.75;7.75;;;;;;;17.62;54.46;100445.16;4513718;31;77619;-88
2022/10/11 05:24:19;;;;;;;14.05;7.90;;;;;;;17.16;55.26;100451.75;4515991;31;81145;-89
2022/10/11 05:27:07;;;;;;;15.40;8.60;;;;;;;17.40;55.19;100460.31;4518915;31;78354;-89
2022/10/11 05:29:55;;;;;;;17.02;7.50;;;;;;;16.68;57.12;100456.41;4505086;31;135148;-85
2022/10/11 05:32:37;;;;;;;16.75;8.57;;;;;;;16.66;57.90;100455.50;4474585;32;80892;-81
2022/10/11 05:35:20;;;;;;;15.55;9.50;;;;;;;17.67;54.97;100464.50;4435014;32;83936;-85
2022/10/11 05:38:03;;;;;;;16.52;9.25;;;;;;;17.83;54.38;100464.06;4512188;31;79785;-86
2022/10/11 05:40:47;;;;;;;15.15;8.45;;;;;;;17.00;56.99;100469.62;4505555;31;248567;-84
2022/10/11 05:43:30;;;;;;;22.17;9.48;;;;;;;17.80;55.02;100468.34;4512651;31;91443;-84
2022/10/11 05:46:13;;;;;;;15.20;9.02;;;;;;;18.96;51.97;100478.13;4520176;31;80579;-82
2022/10/11 05:48:56;;;;;;;16.50;8.73;;;;;;;19.70;49.55;100479.62;4518126;31;119337;-89
2022/10/11 05:51:39;;;;;;;16.62;8.75;;;;;;;19.16;50.44;100483.84;4494121;31;119580;-86
2022/10/11 05:54:22;;;;;;;16.12;8.13;;;;;;;19.16;51.43;100485.56;4502725;31;76035;-87
2022/10/11 05:57:05;;;;;;;13.45;8.48;;;;;;;19.54;49.78;100482.81;4508212;31;211108;-87
2022/10/11 05:59:49;;;;;;;12.77;7.47;;;;;;;19.93;48.90;100484.44;4512277;31;167128;-85
2022/10/11 06:02:32;;;;;;;15.05;7.87;;;;;;;21.14;45.83;100488.06;4519230;31;93643;-85
2022/10/11 06:05:15;;;;;;;12.35;6.05;;;;;;;21.09;45.75;100487.97;4515565;31;78671;-84
2022/10/11 06:18:21;;;;;;;15.88;7.80;;;;;;;19.62;49.31;100503.16;4458480;32;79874;-85
2022/10/11 06:21:06;;;;;;;16.60;7.78;;;;;;;20.18;48.69;100498.88;4505711;31;78472;-89
2022/10/11 06:23:49;;;;;;;16.52;7.03;;;;;;;20.91;46.99;100499.16;4517908;31;78951;-88
2022/10/11 06:26:32;;;;;;;14.05;7.68;;;;;;;21.09;46.13;100501.16;4526352;31;80655;-85
2022/10/11 06:29:23;;;;;;;12.85;7.70;;;;;;;20.52;47.54;100505.59;4513310;31;78711;-86
2022/10/11 06:32:06;;;;;;;13.40;7.75;;;;;;;20.20;47.89;100503.34;4508540;31;32686;-88
2022/10/11 06:34:53;;;;;;;14.57;7.43;;;;;;;20.59;47.23;100502.22;4515170;31;75668;-85
2022/10/11 06:37:35;;;;;;;15.57;9.00;;;;;;;18.49;52.57;100505.91;4516324;31;46746;-84
2022/10/11 06:40:14;;;;;;;13.32;7.50;;;;;;;19.65;50.88;100503.19;4502631;31;80235;-90
2022/10/11 06:42:57;;;;;;;13.25;8.65;;;;;;;20.13;49.62;100511.97;4500379;31;217248;-85
2022/10/11 06:45:40;;;;;;;17.67;8.50;;;;;;;19.42;51.64;100518.50;4518568;31;73758;-85
2022/10/11 06:48:23;;;;;;;14.93;8.77;;;;;;;18.01;55.54;100510.84;4500980;31;78238;-87
2022/10/11 06:51:06;;;;;;;15.05;8.27;;;;;;;17.97;56.43;100516.00;4515261;31;79851;-87
2022/10/11 06:53:57;;;;;;;13.57;8.30;;;;;;;18.57;55.11;100515.72;4524043;31;85599;-85
2022/10/11 06:56:40;;;;;;;14.98;8.77;;;;;;;18.34;55.78;100522.16;4515160;31;81652;-86
2022/10/11 06:59:25;;;;;;;19.37;8.35;;;;;;;20.44;50.21;100512.50;4520046;31;82614;-86
2022/10/11 07:02:09;;;;;;;16.40;8.18;;;;;;;18.36;55.22;100520.47;4506731;31;79251;-88
2022/10/11 07:04:51;;;;;;;15.57;7.40;;;;;;;17.71;56.84;100517.88;4512703;31;86910;-85
2022/10/11 07:07:33;;;;;;;11.73;6.40;;;;;;;21.54;47.17;100517.56;4500379;31;32178;-84
2022/10/11 07:10:16;;;;;;;13.30;6.75;;;;;;;22.22;44.91;100523.53;4499133;31;78464;-86
2022/10/11 07:12:59;;;;;;;14.75;7.45;;;;;;;22.17;45.36;100521.72;4509148;31;78141;-88
2022/10/11 07:15:42;;;;;;;16.00;7.93;;;;;;;19.77;51.02;100534.09;4510750;31;78829;-87
2022/10/11 07:18:26;;;;;;;14.87;7.37;;;;;;;21.09;48.28;100518.72;4507947;31;144364;-85
2022/10/11 07:21:12;;;;;;;14.80;7.07;;;;;;;22.15;45.66;100523.44;4513587;31;79993;-83
2022/10/11 07:24:01;;;;;;;13.13;6.55;;;;;;;20.85;48.23;100519.28;4508613;31;82155;-84
2022/10/11 07:26:44;;;;;;;13.10;7.47;;;;;;;19.23;50.79;100524.22;4499206;31;81637;-86
2022/10/11 07:29:28;;;;;;;15.23;7.32;;;;;;;18.92;51.33;100517.44;4515630;31;81894;-86
2022/10/11 07:32:12;;;;;;;14.57;7.28;;;;;;;20.35;49.30;100528.13;4507604;31;226540;-84
2022/10/11 07:34:56;;;;;;;13.50;7.10;;;;;;;19.88;50.39;100533.44;4509553;31;86837;-84
2022/10/11 07:37:40;;;;;;;13.45;7.78;;;;;;;20.79;48.87;100525.34;4514087;31;82014;-85
2022/10/11 07:40:20;;;;;;;16.80;8.45;;;;;;;20.41;49.38;100522.94;4511593;31;187939;-90
2022/10/11 07:43:04;;;;;;;14.50;7.12;;;;;;;22.59;45.18;100522.09;4509912;31;209525;-88
2022/10/11 07:45:53;;;;;;;13.65;7.57;;;;;;;22.80;44.71;100516.06;4519725;31;83575;-85
2022/10/11 07:48:35;;;;;;;13.32;7.50;;;;;;;23.79;41.97;100521.84;4516934;31;31700;-85
2022/10/11 07:51:25;;;;;;;13.13;6.93;;;;;;;23.76;42.44;100530.62;4511458;31;76522;-85
2022/10/11 07:54:05;;;;;;;14.15;7.37;;;;;;;23.17;43.75;100525.09;4514956;31;74720;-90
2022/10/11 07:56:50;;;;;;;14.38;8.43;;;;;;;24.66;40.75;100523.66;4319615;31;6572434;-87
2022/10/11 07:59:32;;;;;;;12.37;7.15;;;;;;;22.11;45.23;100520.78;4517658;31;79751;-85
2022/10/11 08:02:15;;;;;;;14.63;7.68;;;;;;;21.53;47.03;100532.47;4520949;31;80029;-88
2022/10/11 08:04:59;;;;;;;14.15;7.95;;;;;;;23.55;43.12;100531.44;4513905;31;84997;-87
2022/10/11 08:07:43;;;;;;;15.27;8.20;;;;;;;23.24;43.39;100531.31;4504220;31;92865;-86
2022/10/11 08:10:36;;;;;;;14.63;8.07;;;;;;;24.07;41.69;100531.59;4522434;31;89080;-87
2022/10/11 08:13:18;;;;;;;13.25;7.65;;;;;;;24.55;39.99;100518.41;4516476;31;97726;-87
2022/10/11 08:16:10;;;;;;;12.75;7.60;;;;;;;23.49;42.17;100531.44;4525992;31;100575;-87
2022/10/11 08:18:57;;;;;;;15.30;7.90;;;;;;;19.74;50.65;100536.69;4526922;31;88806;-86
2022/10/11 08:21:44;;;;;;;11.75;7.40;;;;;;;21.31;47.67;100531.31;4525369;31;81131;-91
2022/10/11 08:24:27;;;;;;;12.63;7.87;;;;;;;23.42;43.91;100529.63;4524513;31;79410;-89
2022/10/11 08:27:10;;;;;;;13.32;7.80;;;;;;;25.01;39.84;100512.97;4526359;31;84117;-86
2022/10/11 08:29:53;;;;;;;16.85;8.48;;;;;;;23.19;43.46;100527.75;4523483;31;78893;-89
2022/10/11 08:32:36;;;;;;;17.48;7.85;;;;;;;23.53;43.36;100526.13;4524627;31;133626;-88
2022/10/11 08:35:20;;;;;;;14.48;7.97;;;;;;;23.84;43.14;100517.44;4513787;31;82526;-87
2022/10/11 08:38:04;;;;;;;13.65;8.57;;;;;;;22.94;45.13;100519.66;4510741;31;99538;-89
2022/10/11 08:40:58;;;;;;;12.90;8.13;;;;;;;22.11;47.33;100526.94;4525936;31;88255;-88
2022/10/11 08:43:44;;;;;;;16.90;8.95;;;;;;;23.10;45.58;100525.06;4503995;31;288988;-86
2022/10/11 08:46:13;;;;;;;16.17;8.25;;;;;;;23.10;45.58;100525.06;4500625;31;33116;-88
2022/10/11 08:48:46;;;;;;;16.67;9.10;;;;;;;23.06;45.81;100531.22;4503722;31;33876;-85
2022/10/11 08:51:21;;;;;;;14.65;7.80;;;;;;;22.45;46.54;100532.53;4508047;31;34429;-89
2022/10/11 08:54:38;;;;;;;13.07;7.75;;;;;;;23.43;44.54;100528.72;4510160;31;34260;-87
2022/10/11 08:57:06;;;;;;;11.57;7.57;;;;;;;23.70;44.85;100526.19;4447167;32;33837;-88
2022/10/11 08:59:46;;;;;;;13.02;7.37;;;;;;;24.06;42.97;100518.34;4493124;31;33573;-86
2022/10/11 09:02:29;;;;;;;16.65;8.25;;;;;;;23.72;44.05;100535.03;4500071;31;34693;-89
2022/10/11 09:05:17;;;;;;;12.48;7.62;;;;;;;22.77;45.84;100523.97;4511468;31;33832;-87
2022/10/11 09:07:55;;;;;;;16.92;8.48;;;;;;;23.63;44.05;100524.41;4511191;31;34033;-89
2022/10/11 09:10:26;;;;;;;15.07;7.80;;;;;;;22.49;46.24;100523.78;4501970;31;34512;-89
2022/10/11 09:13:15;;;;;;;12.68;7.60;;;;;;;23.17;45.54;100518.94;4502016;31;33735;-87
2022/10/11 09:15:46;;;;;;;13.75;7.62;;;;;;;23.63;44.62;100519.13;4509653;31;33420;-87
2022/10/11 09:18:23;;;;;;;19.90;8.20;;;;;;;24.72;42.08;100513.03;4507649;31;31801;-89
2022/10/11 09:21:12;;;;;;;16.55;7.55;;;;;;;25.21;40.47;100520.88;4505084;31;34665;-88
2022/10/11 09:24:16;;;;;;;13.40;7.75;;;;;;;25.63;40.27;100523.34;4507457;31;33213;-87
2022/10/11 09:26:50;;;;;;;15.45;8.60;;;;;;;25.51;41.60;100519.00;4432101;32;31895;-87
2022/10/11 09:29:21;;;;;;;16.73;8.02;;;;;;;25.63;41.68;100523.34;4495157;31;34031;-86
2022/10/11 09:31:54;;;;;;;12.32;7.60;;;;;;;25.69;41.23;100529.53;4508790;31;32983;-86
2022/10/11 09:34:31;;;;;;;17.98;8.07;;;;;;;26.14;40.22;100531.03;4503665;31;34581;-87
2022/10/11 09:37:02;;;;;;;14.20;9.13;;;;;;;25.82;41.60;100518.81;4500226;31;33596;-86
2022/10/11 09:39:40;;;;;;;15.63;8.98;;;;;;;26.45;39.61;100524.56;4505655;31;33196;-88
2022/10/11 09:42:09;;;;;;;17.58;9.02;;;;;;;26.63;39.32;100520.88;4504774;31;34630;-87
2022/10/11 09:44:49;;;;;;;13.73;8.80;;;;;;;26.61;39.33;100527.12;4507417;31;32628;-88
2022/10/11 09:47:34;;;;;;;17.52;9.15;;;;;;;27.40;38.24;100532.47;4507806;31;32539;-84
2022/10/11 09:50:14;;;;;;;14.05;8.82;;;;;;;27.99;37.05;100529.91;4504654;31;34056;-88
2022/10/11 09:52:53;;;;;;;12.05;8.48;;;;;;;27.82;37.19;100527.47;4498501;31;33284;-87
2022/10/11 09:55:52;;;;;;;15.60;9.32;;;;;;;28.02;36.86;100519.22;4495298;31;33881;-88
2022/10/11 09:58:32;;;;;;;16.05;8.77;;;;;;;28.94;34.82;100528.28;4493167;31;33573;-91
2022/10/11 10:01:07;;;;;;;15.00;9.25;;;;;;;28.25;36.50;100516.19;4480573;31;34173;-90
2022/10/11 10:03:42;;;;;;;15.23;8.65;;;;;;;28.60;35.64;100528.03;4474085;31;34511;-89
2022/10/11 10:06:15;;;;;;;15.30;8.80;;;;;;;29.41;33.94;100526.47;4489315;31;32481;-91
2022/10/11 10:08:46;;;;;;;16.80;8.32;;;;;;;29.02;33.82;100520.16;4491915;31;34463;-91
2022/10/11 10:11:14;;;;;;;13.77;8.73;;;;;;;28.88;34.44;100516.84;4495158;31;33220;-93
2022/10/11 10:13:45;;;;;;;15.85;8.82;;;;;;;28.83;34.51;100508.94;4492377;31;34691;-90
2022/10/11 10:16:27;;;;;;;21.50;8.50;;;;;;;28.97;34.15;100516.69;4491273;31;33826;-89
2022/10/11 10:19:02;;;;;;;15.48;8.85;;;;;;;28.60;34.32;100512.06;4488554;31;34101;-90
2022/10/11 10:21:43;;;;;;;15.18;8.73;;;;;;;29.05;33.86;100514.72;4496777;31;33670;-90
2022/10/11 10:24:18;;;;;;;16.73;9.10;;;;;;;28.71;34.09;100510.06;4495458;31;34488;-89
2022/10/11 10:27:15;;;;;;;16.37;9.02;;;;;;;29.69;32.81;100506.28;4492946;31;33770;-87
2022/10/11 10:30:00;;;;;;;13.75;9.27;;;;;;;29.08;33.32;100509.34;4498607;31;33954;-88
2022/10/11 10:32:41;;;;;;;13.95;8.75;;;;;;;28.87;34.02;100509.78;4489630;31;33117;-86
2022/10/11 10:35:15;;;;;;;15.82;9.40;;;;;;;29.50;32.86;100511.19;4495331;31;34537;-87
2022/10/11 10:37:50;;;;;;;16.30;9.27;;;;;;;29.29;32.85;100512.53;4499035;31;34667;-87
2022/10/11 10:40:23;;;;;;;24.90;9.77;;;;;;;29.85;31.45;100509.53;4487515;31;34350;-86
2022/10/11 10:42:51;;;;;;;14.75;10.15;;;;;;;28.72;33.82;100511.81;4487038;31;33454;-86
2022/10/11 10:45:23;;;;;;;14.55;9.45;;;;;;;27.75;36.30;100509.81;4484407;32;33709;-89
2022/10/11 10:48:13;;;;;;;14.90;9.35;;;;;;;27.40;36.82;100520.03;4484536;31;33334;-88
2022/10/11 10:50:49;;;;;;;15.85;9.73;;;;;;;28.02;35.25;100509.44;4491791;31;33047;-87
2022/10/11 10:53:35;;;;;;;22.48;10.02;;;;;;;29.26;33.34;100509.91;4487438;31;33179;-81
2022/10/11 10:56:30;;;;;;;16.85;9.30;;;;;;;29.11;33.71;100509.31;4492200;31;33865;-85
2022/10/11 10:59:24;;;;;;;17.05;9.20;;;;;;;28.78;33.79;100508.16;4496696;31;33317;-86
2022/10/11 11:02:15;;;;;;;13.88;9.80;;;;;;;29.14;34.80;100500.38;4497635;31;33510;-88
2022/10/11 11:05:05;;;;;;;14.38;9.30;;;;;;;29.21;32.85;100497.53;4492350;31;33228;-88
2022/10/11 11:07:44;;;;;;;13.62;9.07;;;;;;;29.26;33.68;100501.91;4488850;31;33112;-89
2022/10/11 11:10:18;;;;;;;15.15;9.20;;;;;;;29.16;33.87;100495.88;4491539;31;33960;-88
2022/10/11 11:12:51;;;;;;;13.38;9.40;;;;;;;29.37;33.14;100494.56;4492231;31;33932;-86
2022/10/11 11:15:29;;;;;;;15.23;9.52;;;;;;;29.65;32.69;100499.25;4489573;31;33388;-89
2022/10/11 11:18:24;;;;;;;14.75;10.05;;;;;;;29.55;33.15;100499.50;4492806;31;33478;-88
2022/10/11 11:21:18;;;;;;;12.30;8.80;;;;;;;27.11;36.32;100495.56;4494225;31;33602;-88
2022/10/11 11:24:03;;;;;;;14.95;9.95;;;;;;;29.70;32.91;100497.38;4496468;31;33473;-88
2022/10/11 11:26:43;;;;;;;15.40;9.40;;;;;;;29.19;32.72;100491.37;4489823;31;33852;-88
2022/10/11 11:29:37;;;;;;;16.98;10.82;;;;;;;30.14;32.42;100487.47;4479480;31;31778;-88
2022/10/11 11:32:23;;;;;;;12.98;8.57;;;;;;;29.02;33.71;100489.00;4491492;31;34509;-87
2022/10/11 11:34:57;;;;;;;13.15;9.50;;;;;;;29.77;33.14;100483.88;4490689;31;33550;-88
2022/10/11 11:37:32;;;;;;;14.77;9.43;;;;;;;28.93;35.08;100485.66;4491251;31;32867;-88
2022/10/11 11:40:22;;;;;;;13.98;9.15;;;;;;;30.02;32.89;100483.31;4490184;31;33335;-88
2022/10/11 11:42:53;;;;;;;13.23;10.25;;;;;;;29.78;32.99;100477.63;4488356;31;33911;-89
2022/10/11 11:45:24;;;;;;;13.32;9.95;;;;;;;30.24;32.83;100478.28;4472208;31;33413;-81
2022/10/11 11:47:58;;;;;;;14.60;9.95;;;;;;;29.44;33.48;100474.84;4476651;31;33184;-86
2022/10/11 11:50:26;;;;;;;;;;;;;;;29.36;33.30;100479.44;4477998;31;34306;-88
2022/10/11 11:52:59;;;;;;;15.55;9.13;;;;;;;28.86;34.45;100482.25;4494761;31;33554;-87
2022/10/11 11:55:51;;;;;;;16.08;9.15;;;;;;;28.69;35.30;100477.22;4491100;31;34235;-86
2022/10/11 11:58:31;;;;;;;16.70;9.73;;;;;;;29.65;33.25;100472.56;4487851;31;33129;-86
2022/10/11 12:01:23;;;;;;;12.02;8.95;;;;;;;29.07;34.01;100480.94;4493514;31;33492;-87
2022/10/11 12:04:03;;;;;;;15.10;9.77;;;;;;;28.44;36.12;100480.31;4489790;31;33962;-87
2022/10/11 12:06:32;;;;;;;18.60;9.98;;;;;;;30.19;32.10;100474.84;4492168;31;33572;-86
2022/10/11 12:09:18;;;;;;;13.77;9.73;;;;;;;28.40;35.36;100483.06;4492479;31;33511;-85
2022/10/11 12:12:00;;;;;;;16.30;9.82;;;;;;;28.28;35.51;100473.50;4484120;31;33612;-87
2022/10/11 12:14:31;;;;;;;17.30;10.43;;;;;;;27.89;35.94;100473.25;4490238;31;34656;-87
2022/10/11 12:17:15;;;;;;;15.98;10.45;;;;;;;28.25;34.79;100473.56;4488145;31;32917;-88
2022/10/11 12:20:15;;;;;;;13.68;9.57;;;;;;;28.77;34.45;100466.41;4488829;31;33103;-90
2022/10/11 12:22:49;;;;;;;15.27;11.20;;;;;;;28.29;34.58;100469.06;4477411;32;34478;-88
2022/10/11 12:25:21;;;;;;;14.00;10.27;;;;;;;29.52;31.93;100461.31;4493023;31;33722;-89
2022/10/11 12:27:50;;;;;;;15.35;11.10;;;;;;;29.25;32.37;100468.16;4489053;31;33813;-89
2022/10/11 12:30:42;;;;;;;14.10;10.45;;;;;;;29.14;32.57;100455.91;4495114;31;33778;-87
2022/10/11 12:33:20;;;;;;;17.90;10.57;;;;;;;29.75;31.46;100452.81;4488759;31;33937;-85
2022/10/11 12:35:53;;;;;;;15.20;10.95;;;;;;;29.14;32.71;100450.56;4495579;31;33157;-87
2022/10/11 12:38:30;;;;;;;14.03;9.97;;;;;;;28.04;34.33;100451.69;4497756;31;33625;-88
2022/10/11 12:41:08;;;;;;;15.02;10.98;;;;;;;28.30;34.22;100454.81;4493930;31;33202;-86
2022/10/11 12:43:55;;;;;;;15.65;10.40;;;;;;;27.55;35.30;100449.78;4497647;31;34557;-84